TAF SAEZ
SAEZ 081700Z 0818/0918 09012KT CAVOK TX30/0918Z TN20/0909Z BECMG 0905/0507 05010KT=
METAR SAEZ
WC SAEZ
WS SAEZ
WV SAEZ